Time;durP1;ratioP1;P1;durP2;ratioP2;P2;SDS_P1;SDS_P2;PMS_P1;PMS_P2;Temp;Humidity;BMP_temperature;BMP_pressure;BME280_temperature;BME280_humidity;BME280_pressure;Samples;Min_cycle;Max_cycle;Signal;HPM_P1;HPM_P2
2021/12/29 00:01:25;;;;;;;32.13;16.12;;;;;;;-2.61;81.50;99730.05;1638807;85;25778;-73
2021/12/29 00:03:52;;;;;;;41.83;17.60;;;;;;;-2.60;81.37;99739.59;1639068;86;25783;-74
2021/12/29 00:06:19;;;;;;;33.85;16.97;;;;;;;-2.61;81.18;99739.72;1638324;86;27420;-74
2021/12/29 00:08:46;;;;;;;31.20;16.75;;;;;;;-2.67;81.14;99731.86;1637276;86;25876;-74
2021/12/29 00:11:13;;;;;;;33.00;17.02;;;;;;;-2.69;81.05;99731.16;1640199;86;25807;-75
2021/12/29 00:13:39;;;;;;;36.83;16.42;;;;;;;-2.73;80.97;99731.05;1637490;85;25948;-74
2021/12/29 00:16:05;;;;;;;36.53;16.45;;;;;;;-2.82;80.94;99719.19;1638074;86;26498;-74
2021/12/29 00:18:34;;;;;;;38.58;18.07;;;;;;;-2.82;80.94;99719.19;1605197;87;28266;-74
2021/12/29 00:21:04;;;;;;;28.27;13.95;;;;;;;-2.81;81.00;99728.70;1601651;87;25844;-75
2021/12/29 00:23:31;;;;;;;32.65;16.10;;;;;;;-2.82;80.97;99729.67;1607415;87;25771;-73
2021/12/29 00:25:57;;;;;;;39.60;17.77;;;;;;;-2.85;80.94;99729.91;1606984;87;26099;-74
2021/12/29 00:28:23;;;;;;;33.67;16.52;;;;;;;-2.85;81.04;99730.73;1603533;87;26568;-75
2021/12/29 00:30:50;;;;;;;36.20;16.00;;;;;;;-2.86;80.99;99731.68;1603023;87;28307;-74
2021/12/29 00:33:34;;;;;;;37.15;18.00;;;;;;;-2.88;80.95;99725.73;1608239;86;25946;-74
2021/12/29 00:36:19;;;;;;;37.08;18.87;;;;;;;-2.91;81.00;99723.38;1636381;86;25857;-74
2021/12/29 00:39:05;;;;;;;40.50;18.00;;;;;;;-2.90;81.09;99721.09;1637704;85;25983;-74
2021/12/29 00:41:45;;;;;;;38.75;18.65;;;;;;;-2.90;81.09;99721.09;1622963;85;25849;-74
2021/12/29 00:44:34;;;;;;;34.80;16.77;;;;;;;-2.91;81.05;99720.76;1607128;87;27460;-73
2021/12/29 00:47:00;;;;;;;37.13;17.40;;;;;;;-2.92;81.11;99726.94;1582159;89;26183;-74
2021/12/29 00:49:32;;;;;;;36.77;16.15;;;;;;;-2.93;81.14;99729.19;1639751;86;25787;-75
2021/12/29 00:51:55;;;;;;;35.13;17.95;;;;;;;-2.95;81.25;99724.55;1635544;85;25968;-73
2021/12/29 00:54:22;;;;;;;28.98;15.10;;;;;;;-2.91;81.43;99729.93;1639059;86;25829;-74
2021/12/29 00:56:48;;;;;;;33.55;16.82;;;;;;;-2.89;81.42;99731.11;1641171;85;28127;-75
2021/12/29 00:59:14;;;;;;;33.98;17.30;;;;;;;-2.91;81.46;99733.86;1641332;86;25796;-74
2021/12/29 01:01:40;;;;;;;41.58;17.40;;;;;;;-2.89;81.71;99738.97;1633606;86;26361;-72
2021/12/29 01:04:07;;;;;;;34.33;16.07;;;;;;;-2.85;81.86;99741.22;1645127;86;25790;-73
2021/12/29 01:06:33;;;;;;;36.95;17.30;;;;;;;-2.85;81.86;99741.22;1636714;86;25923;-74
2021/12/29 01:09:00;;;;;;;38.95;18.55;;;;;;;-2.87;81.82;99739.20;1606147;87;27537;-74
2021/12/29 01:11:26;;;;;;;41.25;19.40;;;;;;;-2.84;81.85;99736.32;1643156;85;25801;-72
2021/12/29 01:13:53;;;;;;;36.33;18.17;;;;;;;-2.82;81.94;99739.64;1643101;86;25302;-75
2021/12/29 01:19:07;;;;;;;42.40;21.48;;;;;;;-2.75;82.00;99748.69;1639797;86;25877;-73
2021/12/29 01:21:35;;;;;;;37.53;20.05;;;;;;;-2.73;82.01;99745.94;1640854;85;27452;-74
2021/12/29 01:24:04;;;;;;;40.28;17.95;;;;;;;-2.72;82.07;99743.69;1647365;86;26593;-74
2021/12/29 01:26:33;;;;;;;39.33;18.37;;;;;;;-2.71;82.04;99744.02;1641819;85;25864;-74
2021/12/29 01:28:59;;;;;;;35.13;16.67;;;;;;;-2.70;82.07;99736.53;1642482;86;25815;-74
2021/12/29 01:31:26;;;;;;;31.12;15.05;;;;;;;-2.69;82.17;99736.39;1641633;85;25904;-75
2021/12/29 01:33:52;;;;;;;36.83;18.77;;;;;;;-2.68;82.17;99734.61;1648473;85;27439;-74
2021/12/29 01:36:20;;;;;;;39.92;20.40;;;;;;;-2.67;82.22;99734.48;1639859;86;25882;-74
2021/12/29 01:38:46;;;;;;;42.33;18.45;;;;;;;-2.68;82.26;99724.97;1603323;87;25963;-74
2021/12/29 01:41:13;;;;;;;39.45;19.00;;;;;;;-2.70;82.77;99717.71;1585678;89;26134;-74
2021/12/29 01:43:39;;;;;;;34.20;18.05;;;;;;;-2.70;82.77;99717.71;1603234;87;25852;-74
2021/12/29 01:46:05;;;;;;;38.00;17.73;;;;;;;-2.60;82.47;99720.40;1604143;87;27441;-74
2021/12/29 01:48:32;;;;;;;43.17;21.82;;;;;;;-2.61;82.40;99716.12;1606556;87;25332;-73
2021/12/29 01:50:59;;;;;;;38.53;18.92;;;;;;;-2.62;82.51;99714.45;1605398;87;26601;-76
2021/12/29 01:53:29;;;;;;;37.35;17.95;;;;;;;-2.61;82.57;99722.18;1634749;86;26660;-74
2021/12/29 01:55:54;;;;;;;42.48;20.62;;;;;;;-2.61;82.58;99715.62;1636124;85;26053;-73
2021/12/29 01:58:21;;;;;;;38.60;19.92;;;;;;;-2.56;82.61;99717.88;1639975;85;28051;-74
2021/12/29 02:00:49;;;;;;;38.92;20.08;;;;;;;-2.57;82.58;99714.45;1636595;86;25716;-75
2021/12/29 02:03:15;;;;;;;36.55;18.02;;;;;;;-2.56;82.61;99724.43;1640617;85;25867;-74
2021/12/29 02:05:41;;;;;;;35.60;19.27;;;;;;;-2.54;82.63;99725.14;1607758;87;25825;-74
2021/12/29 02:08:10;;;;;;;40.83;20.65;;;;;;;-2.54;82.76;99723.83;1604975;87;25884;-74
2021/12/29 02:10:46;;;;;;;40.65;19.50;;;;;;;-2.53;82.83;99728.97;1636323;86;27473;-73
2021/12/29 02:13:14;;;;;;;35.40;20.00;;;;;;;-2.51;82.83;99724.42;1635185;85;26358;-75
2021/12/29 02:15:41;;;;;;;36.05;18.80;;;;;;;-2.48;82.78;99723.35;1636667;86;25994;-75
2021/12/29 02:18:18;;;;;;;33.05;17.30;;;;;;;-2.48;82.74;99735.95;1637624;85;25824;-74
2021/12/29 02:20:46;;;;;;;37.98;19.95;;;;;;;-2.47;82.80;99733.70;1636102;86;25321;-74
2021/12/29 02:23:28;;;;;;;43.85;21.93;;;;;;;-2.44;82.76;99737.88;1603132;87;28304;-74
2021/12/29 02:25:57;;;;;;;39.88;20.17;;;;;;;-2.42;82.87;99734.64;1577260;89;25934;-73
2021/12/29 02:28:34;;;;;;;39.98;19.73;;;;;;;-2.40;82.89;99732.72;1640499;85;25880;-75
2021/12/29 02:31:03;;;;;;;40.33;19.45;;;;;;;-2.38;82.78;99736.89;1636089;85;25916;-74
2021/12/29 02:33:34;;;;;;;38.50;19.30;;;;;;;-2.40;82.82;99724.86;1605409;87;25823;-74
2021/12/29 02:36:04;;;;;;;40.40;20.37;;;;;;;-2.36;82.68;99734.97;1637730;86;27972;-73
2021/12/29 02:38:35;;;;;;;36.90;19.82;;;;;;;-2.31;82.68;99735.07;1604984;87;25944;-75
2021/12/29 02:41:07;;;;;;;43.23;21.30;;;;;;;-2.31;82.68;99735.07;1604478;87;25753;-73
2021/12/29 02:43:37;;;;;;;36.68;18.05;;;;;;;-2.30;82.67;99744.11;1603890;88;26557;-74
2021/12/29 02:46:11;;;;;;;39.67;20.12;;;;;;;-2.31;82.61;99741.16;1578698;89;25767;-74
2021/12/29 02:48:37;;;;;;;;;;;;;;;-2.32;82.62;99730.30;1640697;86;27636;-74
2021/12/29 02:51:06;;;;;;;35.68;18.90;;;;;;;-2.31;82.59;99731.13;1638661;85;26064;-74
2021/12/29 02:53:32;;;;;;;39.95;19.40;;;;;;;-2.33;82.73;99725.19;1640902;85;25778;-75
2021/12/29 02:55:58;;;;;;;39.08;20.23;;;;;;;-2.32;82.61;99724.20;1636941;86;26099;-74
2021/12/29 02:58:26;;;;;;;42.43;21.27;;;;;;;-2.33;82.61;99718.63;1603790;88;25696;-74
2021/12/29 03:00:56;;;;;;;39.73;20.25;;;;;;;-2.34;82.65;99715.16;1605858;87;27480;-73
2021/12/29 03:03:25;;;;;;;41.60;21.70;;;;;;;-2.29;82.80;99714.79;1605235;87;25844;-74
2021/12/29 03:05:53;;;;;;;40.28;20.80;;;;;;;-2.29;82.59;99713.01;1641856;86;25797;-73
2021/12/29 03:08:21;;;;;;;39.03;18.92;;;;;;;-2.30;82.72;99708.70;1637834;85;25799;-75
2021/12/29 03:10:52;;;;;;;39.18;19.07;;;;;;;-2.31;82.51;99706.22;1636451;85;26073;-74
2021/12/29 03:13:20;;;;;;;36.93;19.27;;;;;;;-2.31;82.51;99706.22;1602737;87;27528;-74
2021/12/29 03:15:47;;;;;;;36.77;19.82;;;;;;;-2.26;82.54;99719.29;1578438;89;26485;-73
2021/12/29 03:18:15;;;;;;;45.92;21.97;;;;;;;-2.26;82.67;99711.89;1605638;87;25843;-74
2021/12/29 03:20:41;;;;;;;37.35;19.82;;;;;;;-2.25;82.60;99711.79;1605978;87;25847;-75
2021/12/29 03:23:08;;;;;;;41.45;22.70;;;;;;;-2.24;82.63;99734.89;1606630;88;26945;-75
2021/12/29 03:25:34;;;;;;;42.88;21.37;;;;;;;-2.24;82.63;99734.89;1608731;87;28372;-75
2021/12/29 03:28:01;;;;;;;46.33;22.82;;;;;;;-2.24;82.78;99734.42;1637986;86;25371;-75
2021/12/29 03:30:29;;;;;;;39.73;21.45;;;;;;;-2.22;82.64;99732.50;1639914;86;25855;-74
2021/12/29 03:33:05;;;;;;;44.03;21.00;;;;;;;-2.22;82.64;99732.50;1615669;86;25943;-74
2021/12/29 03:35:37;;;;;;;41.70;20.68;;;;;;;-2.18;82.63;99738.34;1637511;86;25876;-75
2021/12/29 03:38:08;;;;;;;39.95;20.02;;;;;;;-2.29;82.52;99714.32;1640045;86;28221;-76
2021/12/29 03:40:35;;;;;;;40.20;22.22;;;;;;;-2.22;82.49;99724.63;1638868;86;25516;-74
2021/12/29 03:43:04;;;;;;;37.65;20.60;;;;;;;-2.22;82.49;99724.63;1610715;87;25811;-74
2021/12/29 03:45:32;;;;;;;44.73;23.30;;;;;;;-2.26;82.51;99705.34;1616946;87;25853;-74
2021/12/29 03:47:59;;;;;;;44.53;20.50;;;;;;;-2.26;82.51;99705.34;1638675;85;26008;-75
2021/12/29 03:50:25;;;;;;;44.30;22.95;;;;;;;-2.22;82.57;99714.14;1639823;86;27484;-75
2021/12/29 03:52:52;;;;;;;45.88;22.77;;;;;;;-2.25;82.57;99713.10;1638176;85;25848;-75
2021/12/29 03:55:19;;;;;;;43.80;21.45;;;;;;;-2.24;82.65;99713.44;1640673;86;26451;-75
2021/12/29 03:57:45;;;;;;;41.10;22.27;;;;;;;-2.22;82.76;99708.09;1643427;85;25819;-74
2021/12/29 04:00:16;;;;;;;38.25;22.48;;;;;;;-2.22;82.76;99708.09;1640482;86;26458;-74
2021/12/29 04:02:43;;;;;;;43.00;22.22;;;;;;;-2.22;82.71;99710.20;1643486;85;27463;-73
2021/12/29 04:05:14;;;;;;;51.90;24.60;;;;;;;-2.23;82.69;99712.97;1645022;86;26696;-74
2021/12/29 04:07:41;;;;;;;45.03;23.38;;;;;;;-2.24;82.82;99713.44;1636113;85;25805;-74
2021/12/29 04:10:09;;;;;;;41.88;20.85;;;;;;;-2.22;82.88;99714.64;1641256;86;25791;-73
2021/12/29 04:12:39;;;;;;;42.20;22.52;;;;;;;-2.22;83.19;99709.39;1639208;86;25841;-74
2021/12/29 04:15:08;;;;;;;45.63;24.05;;;;;;;-2.22;83.19;99709.39;1636844;86;27453;-74
2021/12/29 04:17:38;;;;;;;50.10;24.32;;;;;;;-2.23;82.95;99711.18;1607024;87;25840;-73
2021/12/29 04:22:41;;;;;;;51.65;24.02;;;;;;;-2.23;83.03;99695.44;1568238;87;25994;-74
2021/12/29 04:25:08;;;;;;;44.00;21.60;;;;;;;-2.26;82.98;99686.98;1609781;87;25902;-74
2021/12/29 04:27:34;;;;;;;51.50;23.67;;;;;;;-2.22;83.08;99694.47;1585206;87;27487;-74
2021/12/29 04:30:00;;;;;;;45.70;22.48;;;;;;;-2.27;83.12;99689.27;1645777;86;25889;-74
2021/12/29 04:32:26;;;;;;;47.33;24.05;;;;;;;-2.27;83.35;99679.61;1640284;85;25947;-74
2021/12/29 04:34:52;;;;;;;39.95;21.02;;;;;;;-2.22;83.19;99686.59;1634604;86;26579;-74
2021/12/29 04:37:19;;;;;;;45.10;22.55;;;;;;;-2.24;83.17;99684.58;1636808;85;25821;-74
2021/12/29 04:39:45;;;;;;;47.27;22.42;;;;;;;-2.31;83.23;99678.20;1634489;86;28430;-74
2021/12/29 04:42:11;;;;;;;42.83;21.48;;;;;;;-2.24;83.28;99686.37;1634112;85;25929;-74
2021/12/29 04:44:37;;;;;;;42.03;21.33;;;;;;;-2.23;83.33;99692.82;1635673;86;26462;-74
2021/12/29 04:47:07;;;;;;;43.42;21.55;;;;;;;-2.23;83.35;99679.70;1636510;85;26017;-74
2021/12/29 04:49:40;;;;;;;43.52;20.55;;;;;;;-2.22;83.32;99688.41;1634979;86;26618;-75
2021/12/29 04:52:03;;;;;;;40.73;19.80;;;;;;;-2.24;83.38;99692.45;1637148;85;28369;-74
2021/12/29 04:54:30;;;;;;;41.55;21.62;;;;;;;-2.24;83.38;99692.45;1635052;86;26018;-75
2021/12/29 04:56:58;;;;;;;41.95;22.02;;;;;;;-2.23;83.41;99687.58;1636644;85;25967;-74
2021/12/29 04:59:26;;;;;;;37.45;20.90;;;;;;;-2.26;83.40;99681.27;1635523;86;25834;-74
2021/12/29 05:01:53;;;;;;;40.03;21.62;;;;;;;-2.21;83.40;99690.90;1635433;86;26227;-75
2021/12/29 05:04:23;;;;;;;38.40;19.75;;;;;;;-2.22;83.42;99690.53;1633962;86;28428;-74
2021/12/29 05:09:35;;;;;;;43.20;23.50;;;;;;;-2.27;83.42;99684.86;1637867;85;25844;-73
2021/12/29 05:12:02;;;;;;;43.87;22.30;;;;;;;-2.23;83.58;99691.98;1604322;87;26118;-74
2021/12/29 05:14:29;;;;;;;51.88;26.30;;;;;;;-2.18;83.81;99697.69;1637120;86;25863;-74
2021/12/29 05:16:55;;;;;;;48.28;22.85;;;;;;;-2.17;83.69;99700.17;1637394;86;28338;-75
2021/12/29 05:19:21;;;;;;;59.05;27.30;;;;;;;-2.15;83.68;99711.37;1610188;87;25795;-73
2021/12/29 05:21:47;;;;;;;63.13;29.82;;;;;;;-2.15;83.74;99715.77;1638091;86;25738;-74
2021/12/29 05:24:14;;;;;;;51.90;26.35;;;;;;;-2.16;83.79;99708.88;1638408;86;25799;-75
2021/12/29 05:26:40;;;;;;;60.17;29.72;;;;;;;-2.20;83.87;99710.91;1639720;85;26077;-73
2021/12/29 05:29:06;;;;;;;54.90;30.37;;;;;;;-2.20;83.87;99710.91;1638827;86;27469;-74
2021/12/29 05:31:32;;;;;;;59.88;27.58;;;;;;;-2.15;83.93;99720.55;1638009;85;26126;-74
2021/12/29 05:33:59;;;;;;;51.23;26.48;;;;;;;-2.13;83.96;99729.59;1638202;86;27046;-74
2021/12/29 05:36:25;;;;;;;52.85;24.60;;;;;;;-2.13;84.10;99728.28;1634829;86;25832;-74
2021/12/29 05:38:56;;;;;;;50.35;24.32;;;;;;;-2.14;84.02;99727.47;1642389;86;25772;-74
2021/12/29 05:41:23;;;;;;;59.45;28.77;;;;;;;-2.14;84.07;99725.32;1634585;85;27542;-73
2021/12/29 05:43:49;;;;;;;68.72;29.02;;;;;;;-2.15;84.16;99724.48;1605708;87;26564;-75
2021/12/29 05:46:16;;;;;;;59.38;27.45;;;;;;;-2.15;84.22;99727.58;1639697;85;25838;-74
2021/12/29 05:48:43;;;;;;;63.55;29.52;;;;;;;-2.19;84.27;99717.83;1639492;86;26573;-74
2021/12/29 05:51:12;;;;;;;59.75;29.98;;;;;;;-2.14;84.24;99723.54;1637867;86;25706;-75
2021/12/29 05:53:37;;;;;;;62.85;29.95;;;;;;;-2.13;84.29;99722.56;1605510;87;27545;-73
2021/12/29 05:56:04;;;;;;;60.63;28.30;;;;;;;-2.12;84.33;99722.09;1577248;89;25875;-75
2021/12/29 05:58:30;;;;;;;61.65;26.48;;;;;;;-2.13;84.38;99721.72;1603329;87;26410;-74
2021/12/29 06:00:56;;;;;;;59.23;27.75;;;;;;;-2.13;84.38;99721.72;1579777;89;25945;-75
2021/12/29 06:03:23;;;;;;;70.62;30.25;;;;;;;-2.12;84.38;99726.02;1640121;86;25798;-74
2021/12/29 06:05:49;;;;;;;63.33;29.48;;;;;;;-2.12;84.39;99729.96;1638454;85;27456;-74
2021/12/29 06:08:15;;;;;;;59.42;27.77;;;;;;;-2.12;84.50;99724.71;1606305;86;25901;-73
2021/12/29 06:10:42;;;;;;;66.07;28.32;;;;;;;-2.10;84.49;99726.25;1645304;85;25874;-74
2021/12/29 06:13:10;;;;;;;65.37;32.25;;;;;;;-2.10;84.43;99719.70;1644974;85;26540;-75
2021/12/29 06:15:36;;;;;;;60.67;27.95;;;;;;;-2.08;84.56;99719.56;1640072;86;26464;-74
2021/12/29 06:18:03;;;;;;;65.52;29.55;;;;;;;-2.06;84.47;99717.64;1603393;88;28036;-74
2021/12/29 06:20:31;;;;;;;67.50;30.60;;;;;;;-2.07;84.50;99708.92;1638954;85;25361;-74
2021/12/29 06:22:57;;;;;;;82.15;32.15;;;;;;;-2.06;84.51;99710.61;1603740;87;25782;-75
2021/12/29 06:25:29;;;;;;;69.25;31.65;;;;;;;-2.08;84.58;99716.46;1641910;86;26570;-74
2021/12/29 06:27:52;;;;;;;69.07;30.08;;;;;;;-2.08;84.56;99719.09;1601124;87;25871;-74
2021/12/29 06:30:19;;;;;;;76.92;32.38;;;;;;;-2.08;84.68;99711.69;1601553;87;27444;-73
2021/12/29 06:32:45;;;;;;;74.58;31.07;;;;;;;-2.09;84.74;99715.25;1602192;87;25920;-73
2021/12/29 06:35:14;;;;;;;88.50;35.73;;;;;;;-2.19;84.68;99715.21;1641578;85;25854;-75
2021/12/29 06:37:43;;;;;;;75.32;33.08;;;;;;;-2.16;84.92;99731.18;1637688;85;26297;-74
2021/12/29 06:40:10;;;;;;;78.22;34.43;;;;;;;-2.16;84.92;99731.18;1642125;86;25747;-76
2021/12/29 06:42:37;;;;;;;82.72;36.55;;;;;;;-2.11;85.01;99740.31;1639289;86;27450;-73
2021/12/29 06:45:05;;;;;;;90.12;39.53;;;;;;;-2.08;85.02;99745.80;1602552;89;26022;-73
2021/12/29 06:47:31;;;;;;;95.75;41.15;;;;;;;-2.09;85.08;99735.77;1638626;85;25523;-73
2021/12/29 06:49:57;;;;;;;97.55;41.10;;;;;;;-2.09;85.08;99735.77;1640107;86;26491;-74
2021/12/29 06:52:23;;;;;;;97.82;43.40;;;;;;;-2.02;84.91;99751.84;1633731;85;25809;-75
2021/12/29 06:54:50;;;;;;;86.45;39.27;;;;;;;-2.02;84.91;99751.84;1640517;85;28332;-74
2021/12/29 06:57:16;;;;;;;93.80;40.95;;;;;;;-2.04;84.96;99754.59;1638455;85;25322;-74
2021/12/29 06:59:42;;;;;;;91.85;39.70;;;;;;;-2.04;85.10;99744.11;1637279;85;26153;-74
2021/12/29 07:02:10;;;;;;;91.47;40.65;;;;;;;-1.98;84.92;99752.77;1636875;85;26460;-73
2021/12/29 07:04:37;;;;;;;91.78;40.95;;;;;;;-1.98;84.92;99752.77;1636090;85;26130;-74
2021/12/29 07:07:04;;;;;;;96.17;38.67;;;;;;;-2.05;85.20;99739.80;1641423;85;27485;-74
2021/12/29 07:09:30;;;;;;;101.95;40.65;;;;;;;-2.05;85.20;99739.80;1637259;85;25729;-74
2021/12/29 07:11:56;;;;;;;93.00;38.83;;;;;;;-1.98;85.16;99752.77;1637203;86;25914;-74
2021/12/29 07:14:22;;;;;;;91.85;37.73;;;;;;;-1.97;85.26;99752.30;1645008;85;25861;-74
2021/12/29 07:16:50;;;;;;;95.40;36.58;;;;;;;-2.00;85.24;99758.63;1638425;85;26071;-74
2021/12/29 07:19:18;;;;;;;85.32;36.45;;;;;;;-2.00;85.32;99753.85;1636849;86;27466;-74
2021/12/29 07:21:47;;;;;;;87.65;41.15;;;;;;;-2.00;85.36;99766.97;1636114;85;25742;-74
2021/12/29 07:24:13;;;;;;;97.92;42.10;;;;;;;-2.01;85.54;99768.76;1606698;87;25864;-74
2021/12/29 07:26:39;;;;;;;93.70;43.73;;;;;;;-2.00;85.55;99771.75;1576651;89;25901;-74
2021/12/29 07:29:07;;;;;;;96.75;41.98;;;;;;;-1.98;85.53;99781.63;1601218;87;25825;-75
2021/12/29 07:31:33;;;;;;;86.67;38.70;;;;;;;-2.01;85.56;99767.95;1638682;85;27467;-74
2021/12/29 07:34:00;;;;;;;94.60;40.58;;;;;;;-1.95;85.41;99777.93;1642746;86;25965;-74
2021/12/29 07:36:26;;;;;;;86.70;38.28;;;;;;;-1.96;85.55;99774.94;1640746;85;25723;-73
2021/12/29 07:38:52;;;;;;;85.12;38.98;;;;;;;-1.94;85.73;99781.73;1633160;85;26481;-74
2021/12/29 07:41:19;;;;;;;88.90;38.58;;;;;;;-1.91;85.86;99774.09;1637143;85;25798;-74
2021/12/29 07:43:45;;;;;;;92.65;42.88;;;;;;;-1.87;85.93;99777.64;1604737;87;27481;-74
2021/12/29 07:46:13;;;;;;;100.72;45.75;;;;;;;-1.85;85.95;99776.19;1601956;88;26467;-74
2021/12/29 07:48:40;;;;;;;91.67;41.08;;;;;;;-1.81;85.89;99775.81;1634466;86;25865;-74
2021/12/29 07:51:07;;;;;;;96.08;43.28;;;;;;;-1.75;86.01;99768.73;1638652;85;25990;-74
2021/12/29 07:53:37;;;;;;;100.35;43.10;;;;;;;-1.70;85.96;99778.38;1603600;89;26310;-74
2021/12/29 07:56:07;;;;;;;100.95;43.95;;;;;;;-1.70;85.96;99778.38;1582036;89;28384;-74
2021/12/29 07:58:34;;;;;;;95.15;40.50;;;;;;;-1.68;85.71;99788.73;1637944;85;26000;-74
2021/12/29 08:01:02;;;;;;;90.70;40.52;;;;;;;-1.65;85.67;99793.74;1631549;87;26209;-74
2021/12/29 08:03:29;;;;;;;87.95;39.27;;;;;;;-1.63;85.69;99791.34;1603334;87;26566;-75
2021/12/29 08:05:55;;;;;;;99.07;39.92;;;;;;;-1.62;85.51;99794.30;1579295;89;25882;-73
2021/12/29 08:08:22;;;;;;;84.55;38.10;;;;;;;-1.70;85.05;99791.97;1637295;85;28686;-74
2021/12/29 08:10:48;;;;;;;94.62;41.40;;;;;;;-1.70;85.05;99791.97;1639749;86;26512;-74
2021/12/29 08:13:15;;;;;;;99.05;44.05;;;;;;;-1.68;85.42;99801.86;1605039;87;25955;-75
2021/12/29 08:15:41;;;;;;;98.15;40.73;;;;;;;-1.66;85.55;99799.94;1603322;86;26584;-74
2021/12/29 08:18:07;;;;;;;93.30;41.77;;;;;;;-1.65;85.60;99791.12;1639472;85;25803;-74
2021/12/29 08:20:35;;;;;;;96.85;42.48;;;;;;;-1.62;85.40;99798.72;1630515;86;27466;-74
2021/12/29 08:23:04;;;;;;;105.90;43.75;;;;;;;-1.62;85.40;99798.72;1635834;86;25812;-79
2021/12/29 08:25:32;;;;;;;97.25;41.83;;;;;;;-1.57;85.66;99796.55;1617923;87;25980;-81
2021/12/29 08:27:58;;;;;;;104.63;45.23;;;;;;;-1.55;85.62;99795.94;1640032;85;25884;-79
2021/12/29 08:30:26;;;;;;;111.20;46.10;;;;;;;-1.53;85.62;99792.69;1609302;87;26209;-79
2021/12/29 08:32:52;;;;;;;96.02;40.75;;;;;;;-1.51;85.44;99796.50;1586545;89;27536;-79
2021/12/29 08:35:19;;;;;;;106.67;43.40;;;;;;;-1.52;85.42;99794.84;1643409;85;26006;-79
2021/12/29 08:37:46;;;;;;;110.52;47.27;;;;;;;-1.51;85.58;99794.70;1642344;85;25894;-78
2021/12/29 08:40:14;;;;;;;110.12;44.80;;;;;;;-1.49;85.53;99803.29;1641846;85;26587;-79
2021/12/29 08:42:41;;;;;;;103.60;43.08;;;;;;;-1.48;85.56;99802.34;1639148;85;26543;-79
2021/12/29 08:45:11;;;;;;;105.78;45.10;;;;;;;-1.46;85.56;99803.52;1604749;87;27497;-79
2021/12/29 08:47:37;;;;;;;102.73;41.67;;;;;;;-1.44;85.56;99806.84;1636309;85;25745;-78
2021/12/29 08:50:07;;;;;;;99.97;45.43;;;;;;;-1.43;85.44;99804.08;1635974;86;25794;-78
2021/12/29 08:52:35;;;;;;;112.90;44.18;;;;;;;-1.43;85.37;99801.45;1602235;87;26512;-82
2021/12/29 08:55:04;;;;;;;111.00;48.45;;;;;;;-1.41;85.49;99806.59;1640411;86;26147;-81
2021/12/29 08:57:30;;;;;;;132.72;57.38;;;;;;;-1.40;85.50;99804.30;1643841;85;27513;-80
2021/12/29 08:59:57;;;;;;;130.80;56.75;;;;;;;-1.39;85.50;99804.67;1636904;86;25864;-80
2021/12/29 09:02:25;;;;;;;114.22;48.50;;;;;;;-1.39;85.51;99803.35;1642757;85;26045;-78
2021/12/29 09:04:52;;;;;;;115.08;50.35;;;;;;;-1.37;85.61;99814.09;1637303;86;26560;-81
2021/12/29 09:07:19;;;;;;;104.07;45.03;;;;;;;-1.33;85.67;99816.80;1605285;87;25956;-80
2021/12/29 09:09:45;;;;;;;115.57;49.73;;;;;;;-1.29;85.65;99817.36;1590122;89;27491;-80
2021/12/29 09:12:11;;;;;;;138.90;57.55;;;;;;;-1.29;85.43;99817.36;1639299;85;25975;-83
2021/12/29 09:14:37;;;;;;;211.12;89.42;;;;;;;-1.30;85.43;99821.77;1641112;85;26486;-87
2021/12/29 09:17:04;;;;;;;242.15;107.72;;;;;;;-1.27;85.50;99825.94;1646026;86;26388;-80
2021/12/29 09:19:33;;;;;;;138.72;66.12;;;;;;;-1.23;85.64;99828.66;1605477;87;26051;-86
2021/12/29 09:21:58;;;;;;;117.45;50.45;;;;;;;-1.25;85.38;99834.05;1642384;86;28310;-82
2021/12/29 09:24:24;;;;;;;106.17;46.18;;;;;;;-1.24;85.51;99833.07;1637416;86;26544;-79
2021/12/29 09:26:50;;;;;;;202.82;98.15;;;;;;;-1.22;85.48;99836.39;1640995;85;26003;-81
2021/12/29 09:29:17;;;;;;;214.10;96.02;;;;;;;-1.18;85.57;99826.48;1636193;87;25770;-80
2021/12/29 09:31:43;;;;;;;129.20;59.93;;;;;;;-1.15;85.43;99825.72;1603220;87;26286;-80
2021/12/29 09:34:09;;;;;;;114.60;51.73;;;;;;;-1.10;85.42;99822.23;1639918;86;27475;-80
2021/12/29 09:36:35;;;;;;;111.40;46.15;;;;;;;-1.08;85.49;99816.36;1600543;87;26522;-79
2021/12/29 09:39:03;;;;;;;102.10;45.45;;;;;;;-1.06;85.29;99825.41;1583281;89;25807;-78
2021/12/29 09:41:31;;;;;;;103.80;46.60;;;;;;;-1.05;85.20;99821.84;1639118;85;26578;-78
2021/12/29 09:43:57;;;;;;;107.17;45.23;;;;;;;-1.03;85.19;99818.59;1641880;85;25796;-79
2021/12/29 09:46:24;;;;;;;101.33;45.98;;;;;;;-1.02;85.21;99814.98;1637733;86;27466;-79
2021/12/29 09:48:51;;;;;;;102.50;44.00;;;;;;;-0.98;85.21;99816.38;1637429;87;25354;-80
2021/12/29 09:51:19;;;;;;;106.50;47.00;;;;;;;-0.98;84.94;99813.75;1639734;87;25842;-80
2021/12/29 09:53:45;;;;;;;108.57;46.33;;;;;;;-0.97;85.09;99818.89;1613634;87;26466;-80
2021/12/29 09:56:12;;;;;;;102.78;45.65;;;;;;;-0.98;84.93;99811.13;1640934;85;26606;-80
2021/12/29 09:58:40;;;;;;;104.58;45.63;;;;;;;-0.99;84.97;99810.78;1605176;87;27536;-81
2021/12/29 10:01:10;;;;;;;103.20;42.83;;;;;;;-0.98;85.09;99815.06;1578601;90;25779;-79
2021/12/29 10:03:37;;;;;;;103.53;43.87;;;;;;;-0.99;85.01;99816.05;1645038;85;25819;-79
2021/12/29 10:06:09;;;;;;;103.35;45.83;;;;;;;-0.97;85.11;99811.48;1604314;87;25849;-78
2021/12/29 10:08:40;;;;;;;106.20;46.02;;;;;;;-0.95;85.19;99816.96;1639190;86;25871;-78
2021/12/29 10:11:11;;;;;;;103.50;42.88;;;;;;;-0.95;85.00;99821.38;1606691;87;27472;-79
2021/12/29 10:13:41;;;;;;;88.87;40.95;;;;;;;-0.95;85.08;99829.27;1643625;85;25941;-77
2021/12/29 10:16:12;;;;;;;111.90;45.08;;;;;;;-0.92;85.19;99824.56;1639140;85;26501;-78
2021/12/29 10:18:41;;;;;;;;;;;;;;;-0.89;85.24;99824.79;1640319;87;25804;-78
2021/12/29 10:21:15;;;;;;;90.85;38.83;;;;;;;-0.89;85.09;99813.80;1629161;85;26588;-78
2021/12/29 10:23:51;;;;;;;99.37;43.05;;;;;;;-0.91;85.13;99807.00;1602886;89;28295;-79
2021/12/29 10:26:22;;;;;;;100.47;41.42;;;;;;;-0.89;85.08;99805.91;1635777;85;25772;-78
2021/12/29 10:28:52;;;;;;;101.00;42.78;;;;;;;-0.88;85.00;99805.44;1637137;85;25798;-79
2021/12/29 10:31:44;;;;;;;98.35;45.20;;;;;;;-0.90;85.05;99805.55;1634370;86;26502;-79
2021/12/29 10:34:21;;;;;;;117.47;51.63;;;;;;;-0.86;85.11;99810.08;1615658;87;25941;-79
2021/12/29 10:36:58;;;;;;;101.65;44.90;;;;;;;-0.89;84.98;99813.80;1634204;86;27476;-79
2021/12/29 10:39:47;;;;;;;105.32;47.98;;;;;;;-0.87;85.14;99817.13;1638584;86;26148;-78
2021/12/29 10:42:19;;;;;;;104.67;45.58;;;;;;;-0.84;85.19;99810.30;1636214;86;26538;-78
2021/12/29 10:44:59;;;;;;;102.85;46.68;;;;;;;-0.82;85.12;99809.67;1640428;85;25754;-76
2021/12/29 10:47:31;;;;;;;98.30;43.38;;;;;;;-0.79;85.14;99820.39;1636824;85;25834;-77
2021/12/29 10:50:08;;;;;;;101.20;41.33;;;;;;;-0.78;85.13;99814.17;1640877;86;27480;-78
2021/12/29 10:52:43;;;;;;;100.20;42.25;;;;;;;-0.74;85.23;99814.73;1638862;85;25977;-77
2021/12/29 10:55:20;;;;;;;109.10;45.38;;;;;;;-0.71;85.15;99818.42;1637557;86;25826;-77
2021/12/29 10:58:07;;;;;;;99.13;42.23;;;;;;;-0.72;85.10;99817.58;1636433;85;25856;-79
2021/12/29 11:00:38;;;;;;;95.10;41.63;;;;;;;-0.73;85.01;99815.93;1608181;87;25973;-78
2021/12/29 11:03:20;;;;;;;96.40;44.65;;;;;;;-0.70;85.22;99818.75;1605994;87;27524;-79
2021/12/29 11:05:58;;;;;;;100.25;43.15;;;;;;;-0.68;85.19;99815.02;1640607;85;25796;-76
2021/12/29 11:08:19;;;;;;;99.37;43.38;;;;;;;-0.68;85.02;99818.97;1638955;86;26132;-77
2021/12/29 11:10:47;;;;;;;101.33;42.10;;;;;;;-0.68;85.04;99818.97;1638902;85;26543;-77
2021/12/29 11:13:26;;;;;;;106.43;44.42;;;;;;;-0.67;85.05;99817.17;1643253;85;25975;-78
2021/12/29 11:15:55;;;;;;;92.95;38.92;;;;;;;-0.64;85.20;99812.98;1639832;85;28334;-83
2021/12/29 11:18:21;;;;;;;100.97;44.88;;;;;;;-0.61;85.05;99802.17;1645962;85;25401;-85
2021/12/29 11:20:55;;;;;;;95.10;45.20;;;;;;;-0.61;85.12;99799.54;1615735;87;25834;-85
2021/12/29 11:23:22;;;;;;;94.07;44.38;;;;;;;-0.57;85.17;99797.82;1639341;85;26555;-81
2021/12/29 11:25:51;;;;;;;96.12;41.13;;;;;;;-0.54;85.17;99803.30;1603515;87;25862;-80
2021/12/29 11:28:27;;;;;;;94.50;41.48;;;;;;;-0.53;85.15;99794.42;1635882;86;27480;-81
2021/12/29 11:30:57;;;;;;;93.00;40.23;;;;;;;-0.53;85.05;99793.95;1642324;85;26569;-79